createdAt,value
2019-01-06T00:00:11.976Z,6.50
2019-01-06T00:02:51.549Z,6.50
2019-01-06T00:05:36.929Z,6.50
2019-01-06T00:08:19.095Z,6.50
2019-01-06T00:10:49.272Z,6.50
2019-01-06T00:13:37.924Z,6.50
2019-01-06T00:16:08.335Z,6.40
2019-01-06T00:18:50.781Z,6.40
2019-01-06T00:21:32.936Z,6.40
2019-01-06T00:24:19.956Z,6.40
2019-01-06T00:27:06.329Z,6.40
2019-01-06T00:29:51.741Z,6.40
2019-01-06T00:32:24.925Z,6.40
2019-01-06T00:34:57.780Z,6.30
2019-01-06T00:37:27.872Z,6.30
2019-01-06T00:39:58.275Z,6.30
2019-01-06T00:42:34.309Z,6.30
2019-01-06T00:45:04.400Z,6.30
2019-01-06T00:47:34.544Z,6.30
2019-01-06T00:50:13.886Z,6.30
2019-01-06T00:52:44.081Z,6.30
2019-01-06T00:55:30.525Z,6.30
2019-01-06T00:58:00.941Z,6.30
2019-01-06T01:00:42.692Z,6.30
2019-01-06T01:03:24.928Z,6.30
2019-01-06T01:06:11.685Z,6.30
2019-01-06T01:08:50.888Z,6.30
2019-01-06T01:11:26.840Z,6.30
2019-01-06T01:14:15.359Z,6.30
2019-01-06T01:16:45.452Z,6.30
2019-01-06T01:19:30.645Z,6.30
2019-01-06T01:22:00.817Z,6.30
2019-01-06T01:24:37.068Z,6.20
2019-01-06T01:27:07.173Z,6.20
2019-01-06T01:29:43.349Z,6.30
2019-01-06T01:32:16.339Z,6.20
2019-01-06T01:34:58.880Z,6.30
2019-01-06T01:37:45.373Z,6.30
2019-01-06T01:40:18.533Z,6.20
2019-01-06T01:43:03.864Z,6.20
2019-01-06T01:45:50.259Z,6.30
2019-01-06T01:48:38.492Z,6.20
2019-01-06T01:51:08.616Z,6.30
2019-01-06T01:53:41.568Z,6.30
2019-01-06T01:56:28.397Z,6.30
2019-01-06T01:59:16.845Z,6.30
2019-01-06T02:01:49.532Z,6.30
2019-01-06T02:04:36.008Z,6.30
2019-01-06T02:07:06.210Z,6.30
2019-01-06T02:09:36.384Z,6.30
2019-01-06T02:12:09.636Z,6.30
2019-01-06T02:14:39.812Z,6.30
2019-01-06T02:17:26.504Z,6.30
2019-01-06T02:20:08.558Z,6.30
2019-01-06T02:22:47.669Z,6.30
2019-01-06T02:25:17.840Z,6.30
2019-01-06T02:28:06.102Z,6.30
2019-01-06T02:30:50.957Z,6.30
2019-01-06T02:33:30.401Z,6.30
2019-01-06T02:36:16.892Z,6.30
2019-01-06T02:38:52.973Z,6.30
2019-01-06T02:41:29.257Z,6.30
2019-01-06T02:44:05.424Z,6.30
2019-01-06T02:46:44.438Z,6.30
2019-01-06T02:49:26.428Z,6.30
2019-01-06T02:52:08.536Z,6.40
2019-01-06T02:54:54.816Z,6.40
2019-01-06T02:57:27.802Z,6.40
2019-01-06T03:00:03.736Z,6.30
2019-01-06T03:02:45.917Z,6.40
2019-01-06T03:05:32.596Z,6.40
2019-01-06T03:08:19.383Z,6.30
2019-01-06T03:10:52.897Z,6.30
2019-01-06T03:13:25.882Z,6.40
2019-01-06T03:16:12.984Z,6.40
2019-01-06T03:18:43.160Z,6.30
2019-01-06T03:21:30.064Z,6.30
2019-01-06T03:24:02.687Z,6.40
2019-01-06T03:26:38.893Z,6.40
2019-01-06T03:29:15.104Z,6.30
2019-01-06T03:31:54.069Z,6.30
2019-01-06T03:34:39.532Z,6.40
2019-01-06T03:37:25.908Z,6.30
2019-01-06T03:39:56.009Z,6.30
2019-01-06T03:42:32.064Z,6.40
2019-01-06T03:45:11.214Z,6.40
2019-01-06T03:47:50.077Z,6.40
2019-01-06T03:50:25.994Z,6.30
2019-01-06T03:53:12.445Z,6.40
2019-01-06T03:55:59.646Z,6.40
2019-01-06T03:58:41.610Z,6.40
2019-01-06T04:01:11.785Z,6.40
2019-01-06T04:03:58.081Z,6.40
2019-01-06T04:06:34.029Z,6.30
2019-01-06T04:09:09.985Z,6.40
2019-01-06T04:11:40.172Z,6.30
2019-01-06T04:14:26.812Z,6.40
2019-01-06T04:17:13.370Z,6.30
2019-01-06T04:20:00.300Z,6.30
2019-01-06T04:22:43.901Z,6.30
2019-01-06T04:25:17.562Z,6.30
2019-01-06T04:28:02.875Z,6.40
2019-01-06T04:30:49.080Z,6.40
2019-01-06T04:33:21.932Z,6.40
2019-01-06T04:35:58.285Z,6.40
2019-01-06T04:38:43.314Z,6.40
2019-01-06T04:41:22.796Z,6.40
2019-01-06T04:44:01.941Z,6.40
2019-01-06T04:46:48.637Z,6.50
2019-01-06T04:49:35.049Z,6.40
2019-01-06T04:52:10.930Z,6.40
2019-01-06T04:54:41.416Z,6.40
2019-01-06T04:57:29.889Z,6.40
2019-01-06T05:00:16.125Z,6.40
2019-01-06T05:03:04.613Z,6.40
2019-01-06T05:05:43.268Z,6.40
2019-01-06T05:08:13.405Z,6.40
2019-01-06T05:11:00.181Z,6.40
2019-01-06T05:13:46.899Z,6.40
2019-01-06T05:16:19.841Z,6.40
2019-01-06T05:18:50.040Z,6.40
2019-01-06T05:21:26.121Z,6.40
2019-01-06T05:24:08.758Z,6.40
2019-01-06T05:26:39.297Z,6.40
2019-01-06T05:29:09.461Z,6.40
2019-01-06T05:31:56.220Z,6.40
2019-01-06T05:34:42.957Z,6.40
2019-01-06T05:37:25.105Z,6.40
2019-01-06T05:40:07.144Z,6.40
2019-01-06T05:42:55.313Z,6.40
2019-01-06T05:45:34.092Z,6.40
2019-01-06T05:48:06.981Z,6.40
2019-01-06T05:50:46.540Z,6.40
2019-01-06T05:53:16.941Z,6.40
2019-01-06T05:55:47.370Z,6.40
2019-01-06T05:58:20.216Z,6.30
2019-01-06T06:00:59.304Z,6.40
2019-01-06T06:03:45.733Z,6.40
2019-01-06T06:06:25.005Z,6.40
2019-01-06T06:09:11.705Z,6.40
2019-01-06T06:11:54.137Z,6.40
2019-01-06T06:14:40.342Z,6.40
2019-01-06T06:17:22.342Z,6.40
2019-01-06T06:20:08.609Z,6.40
2019-01-06T06:22:57.181Z,6.40
2019-01-06T06:25:36.602Z,6.30
2019-01-06T06:28:09.765Z,6.40
2019-01-06T06:30:55.194Z,6.40
2019-01-06T06:33:25.401Z,6.40
2019-01-06T06:36:10.349Z,6.40
2019-01-06T06:38:40.477Z,6.40
2019-01-06T06:41:22.944Z,6.30
2019-01-06T06:44:02.093Z,6.40
2019-01-06T06:46:41.891Z,6.30
2019-01-06T06:49:12.101Z,6.30
2019-01-06T06:51:42.276Z,6.40
2019-01-06T06:54:21.097Z,6.30
2019-01-06T06:57:00.032Z,6.30
2019-01-06T06:59:30.510Z,6.30
2019-01-06T07:02:41.668Z,6.30
2019-01-06T07:05:20.832Z,6.30
2019-01-06T07:08:00.338Z,6.30
2019-01-06T07:10:33.411Z,6.30
2019-01-06T07:13:20.053Z,6.30
2019-01-06T07:15:56.262Z,6.30
2019-01-06T07:18:44.542Z,6.30
2019-01-06T07:21:17.376Z,6.20
2019-01-06T07:23:47.483Z,6.20
2019-01-06T07:26:20.138Z,6.30
2019-01-06T07:28:53.054Z,6.20
2019-01-06T07:31:26.217Z,6.20
2019-01-06T07:34:02.427Z,6.20
2019-01-06T07:36:32.625Z,6.20
2019-01-06T07:39:17.829Z,6.20
2019-01-06T07:41:53.964Z,6.20
2019-01-06T07:44:24.137Z,6.20
2019-01-06T07:47:06.645Z,6.20
2019-01-06T07:49:42.809Z,6.20
2019-01-06T07:52:13.365Z,6.10
2019-01-06T07:54:46.263Z,6.10
2019-01-06T07:57:16.459Z,6.10
2019-01-06T07:59:52.173Z,6.10
2019-01-06T08:02:34.378Z,6.10
2019-01-06T08:05:07.489Z,6.20
2019-01-06T08:07:40.305Z,6.20
2019-01-06T08:10:10.745Z,6.20
2019-01-06T08:12:56.290Z,6.20
2019-01-06T08:15:35.305Z,6.20
2019-01-06T08:18:21.744Z,6.20
2019-01-06T08:20:58.018Z,6.20
2019-01-06T08:23:30.915Z,6.30
2019-01-06T08:26:01.081Z,6.30
2019-01-06T08:28:31.298Z,6.30
2019-01-06T08:31:10.665Z,6.30
2019-01-06T08:33:40.792Z,6.30
2019-01-06T08:36:27.340Z,6.30
2019-01-06T08:39:13.809Z,6.30
2019-01-06T08:42:00.275Z,6.30
2019-01-06T08:44:47.161Z,6.40
2019-01-06T08:47:26.084Z,6.30
2019-01-06T08:50:05.224Z,6.40
2019-01-06T08:52:35.401Z,6.40
2019-01-06T08:55:11.801Z,6.40
2019-01-06T08:57:58.533Z,6.40
2019-01-06T09:00:45.293Z,6.40
2019-01-06T09:03:35.108Z,6.50
2019-01-06T09:06:14.677Z,6.50
2019-01-06T09:08:53.617Z,6.50
2019-01-06T09:11:27.149Z,6.50
2019-01-06T09:13:57.321Z,6.50
2019-01-06T09:16:43.493Z,6.60
2019-01-06T09:19:29.961Z,6.50
2019-01-06T09:22:16.376Z,6.60
2019-01-06T09:24:49.470Z,6.60
2019-01-06T09:27:19.668Z,6.70
2019-01-06T09:29:56.025Z,6.70
2019-01-06T09:32:32.417Z,6.80
2019-01-06T09:35:14.825Z,6.80
2019-01-06T09:37:47.564Z,6.90
2019-01-06T09:40:17.745Z,6.90
2019-01-06T09:42:50.793Z,6.90
2019-01-06T09:45:24.291Z,6.90
2019-01-06T09:47:54.464Z,6.90
2019-01-06T09:50:27.504Z,6.90
2019-01-06T09:53:10.131Z,6.90
2019-01-06T09:55:56.904Z,7.00
2019-01-06T09:58:29.949Z,7.00
2019-01-06T10:01:16.485Z,7.10
2019-01-06T10:03:52.705Z,7.10
2019-01-06T10:06:38.911Z,7.10
2019-01-06T10:09:15.753Z,7.20
2019-01-06T10:11:58.041Z,7.20
2019-01-06T10:14:44.577Z,7.20
2019-01-06T10:17:26.864Z,7.30
2019-01-06T10:19:59.984Z,7.30
2019-01-06T10:22:30.162Z,7.40
2019-01-06T10:25:00.338Z,7.40
2019-01-06T10:27:45.248Z,7.50
2019-01-06T10:30:15.797Z,7.50
2019-01-06T10:32:51.976Z,7.60
2019-01-06T10:35:38.200Z,7.60
2019-01-06T10:38:24.601Z,7.60
2019-01-06T10:40:54.777Z,7.60
2019-01-06T10:43:34.186Z,7.50
2019-01-06T10:46:20.711Z,7.50
2019-01-06T10:48:59.753Z,7.50
2019-01-06T10:51:32.898Z,7.60
2019-01-06T10:54:18.461Z,7.60
2019-01-06T10:56:51.425Z,7.60
2019-01-06T10:59:36.666Z,7.70
2019-01-06T11:02:23.432Z,7.70
2019-01-06T11:04:53.557Z,7.60
2019-01-06T11:07:33.001Z,7.60
2019-01-06T11:10:03.200Z,7.60
2019-01-06T11:12:50.048Z,7.60
2019-01-06T11:15:20.493Z,7.60
2019-01-06T11:17:50.664Z,7.60
2019-01-06T11:20:33.075Z,7.60
2019-01-06T11:23:19.793Z,7.60
2019-01-06T11:26:06.115Z,7.50
2019-01-06T11:28:52.501Z,7.50
2019-01-06T11:31:22.704Z,7.50
2019-01-06T11:34:05.162Z,7.50
2019-01-06T11:36:44.651Z,7.50
2019-01-06T11:39:23.893Z,7.50
2019-01-06T11:42:10.425Z,7.50
2019-01-06T11:44:49.813Z,7.50
2019-01-06T11:47:20.319Z,7.60
2019-01-06T11:49:50.494Z,7.60
2019-01-06T11:52:20.700Z,7.50
2019-01-06T11:54:50.877Z,7.50
2019-01-06T11:57:21.082Z,7.50
2019-01-06T12:00:07.816Z,7.50
2019-01-06T12:02:47.353Z,7.50
2019-01-06T12:05:26.429Z,7.50
2019-01-06T12:08:08.469Z,7.50
2019-01-06T12:10:38.646Z,7.50
2019-01-06T12:13:11.369Z,7.50
2019-01-06T12:15:59.856Z,7.50
2019-01-06T12:18:48.392Z,7.50
2019-01-06T12:21:36.956Z,7.50
2019-01-06T12:24:25.145Z,7.50
2019-01-06T12:27:06.961Z,7.50
2019-01-06T12:29:55.201Z,7.60
2019-01-06T12:32:41.632Z,7.60
2019-01-06T12:35:20.849Z,7.60
2019-01-06T12:37:53.617Z,7.60
2019-01-06T12:40:33.152Z,7.50
2019-01-06T12:43:06.136Z,7.50
2019-01-06T12:45:38.937Z,7.50
2019-01-06T12:48:18.112Z,7.50
2019-01-06T12:51:04.675Z,7.50
2019-01-06T12:53:39.134Z,7.50
2019-01-06T12:56:15.085Z,7.50
2019-01-06T12:58:53.801Z,7.40
2019-01-06T13:01:40.150Z,7.40
2019-01-06T13:04:26.870Z,7.40
2019-01-06T13:06:59.841Z,7.40
2019-01-06T13:09:32.973Z,7.40
2019-01-06T13:12:21.403Z,7.40
2019-01-06T13:14:51.514Z,7.40
2019-01-06T13:17:21.718Z,7.40
2019-01-06T13:20:09.885Z,7.40
2019-01-06T13:22:39.961Z,7.40
2019-01-06T13:25:26.536Z,7.40
2019-01-06T13:28:12.776Z,7.50
2019-01-06T13:30:51.965Z,7.60
2019-01-06T13:33:38.365Z,7.60
2019-01-06T13:36:18.129Z,7.70
2019-01-06T13:38:53.969Z,7.70
2019-01-06T13:41:40.692Z,7.60
2019-01-06T13:44:19.829Z,7.70
2019-01-06T13:46:52.921Z,7.70
2019-01-06T13:49:35.073Z,7.70
2019-01-06T13:52:21.101Z,7.70
2019-01-06T13:55:06.252Z,7.70
2019-01-06T13:57:52.925Z,7.70
2019-01-06T14:00:39.621Z,7.70
2019-01-06T14:03:24.570Z,7.70
2019-01-06T14:05:57.609Z,7.70
2019-01-06T14:08:27.713Z,7.60
2019-01-06T14:11:14.396Z,7.70
2019-01-06T14:13:50.493Z,7.60
2019-01-06T14:16:23.284Z,7.60
2019-01-06T14:19:11.776Z,7.60
2019-01-06T14:21:41.978Z,7.60
2019-01-06T14:24:12.403Z,7.60
2019-01-06T14:26:51.712Z,7.60
2019-01-06T14:29:30.773Z,7.60
2019-01-06T14:32:00.893Z,7.60
2019-01-06T14:34:36.889Z,7.60
2019-01-06T14:37:15.592Z,7.60
2019-01-06T14:39:48.237Z,7.60
2019-01-06T14:42:24.514Z,7.60
2019-01-06T14:45:00.563Z,7.60
2019-01-06T14:47:47.256Z,7.60
2019-01-06T14:50:33.602Z,7.60
2019-01-06T14:53:06.549Z,7.60
2019-01-06T14:55:51.684Z,7.60
2019-01-06T14:58:30.568Z,7.60
2019-01-06T15:01:00.665Z,7.50
2019-01-06T15:03:45.601Z,7.50
2019-01-06T15:06:21.588Z,7.50
2019-01-06T15:08:51.711Z,7.40
2019-01-06T15:11:30.871Z,7.40
2019-01-06T15:14:16.898Z,7.30
2019-01-06T15:17:03.443Z,7.30
2019-01-06T15:19:49.968Z,7.20
2019-01-06T15:22:26.144Z,7.20
2019-01-06T15:25:12.504Z,7.10
2019-01-06T15:27:45.672Z,7.10
2019-01-06T15:30:27.697Z,7.10
2019-01-06T15:32:57.868Z,7.10
2019-01-06T15:35:37.064Z,7.10
2019-01-06T15:38:15.952Z,7.10
2019-01-06T15:41:02.104Z,7.10
2019-01-06T15:43:32.509Z,7.10
2019-01-06T15:46:08.584Z,7.10
2019-01-06T15:48:57.130Z,7.20
2019-01-06T15:51:27.319Z,7.10
2019-01-06T15:54:00.165Z,7.10
2019-01-06T15:56:47.084Z,7.10
2019-01-06T15:59:33.745Z,7.10
2019-01-06T16:02:09.905Z,7.10
2019-01-06T16:04:46.061Z,7.00
2019-01-06T16:07:21.976Z,7.00
2019-01-06T16:09:52.084Z,7.00
2019-01-06T16:12:38.369Z,7.00
2019-01-06T16:15:24.976Z,7.00
2019-01-06T16:17:55.106Z,7.00
2019-01-06T16:20:25.282Z,7.10
2019-01-06T16:23:11.824Z,7.00
2019-01-06T16:25:59.945Z,7.00
2019-01-06T16:28:32.565Z,7.00
2019-01-06T16:31:05.324Z,7.00
2019-01-06T16:33:51.676Z,7.00
2019-01-06T16:36:27.724Z,7.00
2019-01-06T16:38:57.958Z,7.00
2019-01-06T16:41:43.129Z,7.00
2019-01-06T16:44:29.558Z,7.00
2019-01-06T16:47:08.729Z,7.00
2019-01-06T16:49:53.596Z,7.00
2019-01-06T16:52:23.773Z,7.00
2019-01-06T16:55:10.543Z,7.00
2019-01-06T16:57:58.909Z,7.00
2019-01-06T17:00:41.053Z,6.90
2019-01-06T17:03:19.813Z,6.90
2019-01-06T17:06:02.077Z,6.90
2019-01-06T17:08:47.037Z,6.90
2019-01-06T17:11:31.899Z,6.90
2019-01-06T17:14:10.843Z,6.80
2019-01-06T17:16:58.009Z,6.80
2019-01-06T17:19:44.728Z,6.80
2019-01-06T17:22:29.983Z,6.80
2019-01-06T17:25:17.988Z,6.80
2019-01-06T17:27:56.755Z,6.80
2019-01-06T17:30:32.729Z,6.80
2019-01-06T17:33:05.632Z,6.70
2019-01-06T17:35:35.736Z,6.80
2019-01-06T17:38:05.931Z,6.70
2019-01-06T17:40:42.009Z,6.70
2019-01-06T17:43:12.205Z,6.70
2019-01-06T17:46:01.238Z,6.70
2019-01-06T17:48:33.940Z,6.70
2019-01-06T17:51:04.041Z,6.70
2019-01-06T17:53:45.896Z,6.70
2019-01-06T17:56:21.945Z,6.70
2019-01-06T17:59:08.189Z,6.70
2019-01-06T18:01:40.985Z,6.70
2019-01-06T18:04:11.257Z,6.70
2019-01-06T18:06:47.365Z,6.70
2019-01-06T18:09:33.859Z,6.70
2019-01-06T18:12:06.741Z,6.70
2019-01-06T18:14:42.433Z,6.70
2019-01-06T18:17:28.958Z,6.80
2019-01-06T18:20:02.389Z,6.70
2019-01-06T18:22:38.692Z,6.70
2019-01-06T18:25:08.816Z,6.70
2019-01-06T18:27:41.893Z,6.70
2019-01-06T18:30:14.960Z,6.60
2019-01-06T18:33:01.760Z,6.70
2019-01-06T18:35:44.312Z,6.60
2019-01-06T18:38:30.957Z,6.60
2019-01-06T18:41:07.049Z,6.60
2019-01-06T18:43:39.853Z,6.60
2019-01-06T18:46:15.773Z,6.70
2019-01-06T18:48:57.752Z,6.60
2019-01-06T18:51:27.873Z,6.60
2019-01-06T18:54:00.694Z,6.60
2019-01-06T18:56:47.465Z,6.60
2019-01-06T18:59:29.632Z,6.60
2019-01-06T19:02:02.749Z,6.60
2019-01-06T19:04:35.381Z,6.60
2019-01-06T19:07:11.453Z,6.60
2019-01-06T19:09:58.203Z,6.60
2019-01-06T19:12:44.793Z,6.70
2019-01-06T19:15:26.741Z,6.60
2019-01-06T19:18:02.629Z,6.60
2019-01-06T19:20:38.826Z,6.70
2019-01-06T19:23:09.026Z,6.70
2019-01-06T19:25:57.264Z,6.70
2019-01-06T19:28:44.078Z,6.70
2019-01-06T19:31:14.196Z,6.70
2019-01-06T19:33:44.292Z,6.70
2019-01-06T19:36:14.422Z,6.70
2019-01-06T19:38:56.388Z,6.70
2019-01-06T19:41:32.756Z,6.70
2019-01-06T19:44:19.556Z,6.70
2019-01-06T19:46:55.529Z,6.70
2019-01-06T19:49:40.617Z,6.70
2019-01-06T19:52:13.058Z,6.70
2019-01-06T19:54:48.526Z,6.70
2019-01-06T19:57:21.355Z,6.70
2019-01-06T19:59:57.196Z,6.70
2019-01-06T20:02:43.491Z,6.70
2019-01-06T20:05:13.662Z,6.60
2019-01-06T20:07:43.834Z,6.60
2019-01-06T20:10:19.601Z,6.60
2019-01-06T20:13:06.253Z,6.60
2019-01-06T20:15:39.005Z,6.60
2019-01-06T20:18:09.105Z,6.60
2019-01-06T20:20:55.528Z,6.60
2019-01-06T20:23:43.826Z,6.50
2019-01-06T20:26:14.298Z,6.50
2019-01-06T20:28:56.348Z,6.50
2019-01-06T20:31:42.400Z,6.50
2019-01-06T20:34:28.765Z,6.50
2019-01-06T20:36:58.894Z,6.40
2019-01-06T20:39:31.949Z,6.50
2019-01-06T20:42:18.305Z,6.50
2019-01-06T20:45:04.917Z,6.40
2019-01-06T20:47:47.046Z,6.40
2019-01-06T20:50:19.680Z,6.40
2019-01-06T20:52:52.964Z,6.40
2019-01-06T20:55:39.257Z,6.40
2019-01-06T20:58:09.452Z,6.40
2019-01-06T21:00:57.793Z,6.40
2019-01-06T21:03:43.918Z,6.40
2019-01-06T21:06:29.224Z,6.50
2019-01-06T21:09:17.705Z,6.50
2019-01-06T21:11:47.800Z,6.50
2019-01-06T21:14:33.085Z,6.40
2019-01-06T21:17:09.417Z,6.40
2019-01-06T21:19:39.853Z,6.40
2019-01-06T21:22:10.305Z,6.40
2019-01-06T21:24:40.409Z,6.40
2019-01-06T21:27:29.092Z,6.40
2019-01-06T21:29:59.194Z,6.40
2019-01-06T21:32:32.471Z,6.40
2019-01-06T21:35:08.684Z,6.40
2019-01-06T21:37:47.953Z,6.40
2019-01-06T21:40:24.224Z,6.30
2019-01-06T21:42:57.305Z,6.30
2019-01-06T21:45:27.405Z,6.20
2019-01-06T21:47:57.505Z,6.20
2019-01-06T21:50:33.422Z,6.20
2019-01-06T21:53:03.518Z,6.20
2019-01-06T21:55:37.057Z,6.20
2019-01-06T21:58:09.789Z,6.20
2019-01-06T22:00:42.633Z,6.20
2019-01-06T22:03:15.665Z,6.20
2019-01-06T22:06:02.450Z,6.20
2019-01-06T22:08:32.616Z,6.20
2019-01-06T22:11:02.737Z,6.20
2019-01-06T22:13:51.069Z,6.20
2019-01-06T22:16:21.512Z,6.20
2019-01-06T22:18:54.625Z,6.20
2019-01-06T22:21:24.748Z,6.20
2019-01-06T22:24:11.633Z,6.20
2019-01-06T22:26:47.747Z,6.20
2019-01-06T22:29:32.967Z,6.10
2019-01-06T22:32:19.810Z,6.10
2019-01-06T22:35:05.993Z,6.10
2019-01-06T22:37:36.293Z,6.10
2019-01-06T22:40:13.582Z,6.10
2019-01-06T22:42:43.779Z,6.10
2019-01-06T22:45:13.985Z,6.10
2019-01-06T22:47:53.469Z,6.10
2019-01-06T22:50:40.052Z,6.00
2019-01-06T22:53:15.930Z,6.00
2019-01-06T22:55:52.197Z,6.00
2019-01-06T22:58:39.013Z,6.00
2019-01-06T23:01:25.625Z,6.00
2019-01-06T23:04:07.854Z,6.00
2019-01-06T23:06:40.664Z,5.90
2019-01-06T23:09:27.144Z,6.00
2019-01-06T23:12:09.069Z,5.90
2019-01-06T23:14:39.198Z,5.90
2019-01-06T23:17:18.173Z,5.90
2019-01-06T23:19:57.605Z,5.90
2019-01-06T23:22:36.952Z,5.90
2019-01-06T23:25:08.197Z,5.90
2019-01-06T23:27:54.612Z,5.90
2019-01-06T23:30:41.299Z,5.90
2019-01-06T23:33:26.436Z,5.90
2019-01-06T23:36:14.937Z,5.90
2019-01-06T23:38:57.417Z,5.90
2019-01-06T23:41:27.612Z,5.90
2019-01-06T23:44:03.566Z,5.90
2019-01-06T23:46:45.878Z,5.90
2019-01-06T23:49:21.781Z,5.90
2019-01-06T23:51:57.677Z,5.90
2019-01-06T23:54:28.138Z,5.90
2019-01-06T23:57:01.129Z,5.90
2019-01-06T23:59:31.229Z,5.90
